Time;durP1;ratioP1;P1;durP2;ratioP2;P2;SDS_P1;SDS_P2;PMS_P1;PMS_P2;Temp;Humidity;BMP_temperature;BMP_pressure;BME280_temperature;BME280_humidity;BME280_pressure;Samples;Min_cycle;Max_cycle;Signal;HPM_P1;HPM_P2
2021/12/27 00:01:47;;;;;;;9.80;2.30;;;21.50;99.90;;;;;;5005181;28;20224;-78
2021/12/27 00:04:18;;;;;;;10.27;2.10;;;21.60;99.90;;;;;;5006729;28;20704;-79
2021/12/27 00:06:48;;;;;;;12.52;2.25;;;21.70;99.90;;;;;;5006046;28;20240;-78
2021/12/27 00:09:19;;;;;;;12.65;2.70;;;21.80;99.90;;;;;;5006523;28;20263;-78
2021/12/27 00:11:50;;;;;;;11.18;2.13;;;21.80;99.90;;;;;;5002604;28;20244;-80
2021/12/27 00:14:21;;;;;;;13.65;2.03;;;21.90;99.90;;;;;;5008075;28;20217;-78
2021/12/27 00:16:54;;;;;;;9.95;2.05;;;21.90;99.90;;;;;;5005501;28;20264;-79
2021/12/27 00:19:24;;;;;;;11.23;2.13;;;22.00;99.90;;;;;;5005705;28;20268;-79
2021/12/27 00:21:55;;;;;;;8.02;1.92;;;22.00;99.90;;;;;;5004854;28;20232;-78
2021/12/27 00:24:26;;;;;;;8.82;2.28;;;22.00;99.90;;;;;;5005831;28;20221;-79
2021/12/27 00:26:56;;;;;;;11.15;2.30;;;22.00;99.90;;;;;;5006683;28;20213;-79
2021/12/27 00:29:27;;;;;;;9.25;2.15;;;22.00;99.90;;;;;;5005750;28;20221;-78
2021/12/27 00:31:59;;;;;;;7.10;1.88;;;22.00;99.90;;;;;;5012058;28;20734;-79
2021/12/27 00:34:30;;;;;;;11.70;2.35;;;22.10;99.90;;;;;;5007010;28;20244;-78
2021/12/27 00:37:01;;;;;;;8.75;2.00;;;22.10;99.90;;;;;;5004701;28;20256;-79
2021/12/27 00:39:31;;;;;;;11.80;2.45;;;22.20;99.90;;;;;;5008254;28;20224;-78
2021/12/27 00:42:02;;;;;;;11.55;2.40;;;22.30;99.90;;;;;;5006108;28;20263;-79
2021/12/27 00:44:33;;;;;;;12.52;2.70;;;22.30;99.90;;;;;;5006281;28;20218;-79
2021/12/27 00:47:06;;;;;;;12.38;2.60;;;22.30;99.90;;;;;;5008884;28;20233;-79
2021/12/27 00:49:36;;;;;;;9.68;2.22;;;22.40;99.90;;;;;;5007005;28;20289;-79
2021/12/27 00:52:07;;;;;;;13.55;2.30;;;22.50;99.90;;;;;;5007463;28;20705;-79
2021/12/27 00:54:38;;;;;;;8.52;2.30;;;22.40;99.90;;;;;;5006937;28;20201;-79
2021/12/27 00:57:10;;;;;;;13.32;2.70;;;22.60;99.90;;;;;;5006151;28;20201;-79
2021/12/27 00:59:41;;;;;;;12.40;2.55;;;22.80;99.90;;;;;;5007370;28;20298;-79
2021/12/27 01:02:16;;;;;;;16.00;2.63;;;22.70;99.90;;;;;;5006744;28;20235;-79
2021/12/27 01:04:46;;;;;;;12.23;2.20;;;22.70;99.90;;;;;;5007731;28;20555;-79
2021/12/27 01:07:17;;;;;;;15.32;2.65;;;22.90;99.90;;;;;;5002979;28;20280;-79
2021/12/27 01:10:02;;;;;;;14.00;2.65;;;22.80;99.90;;;;;;5000988;28;20294;-79
2021/12/27 01:12:46;;;;;;;11.00;2.17;;;22.80;99.90;;;;;;5001320;28;20225;-78
2021/12/27 01:15:35;;;;;;;10.55;2.60;;;22.90;99.90;;;;;;5003496;28;20218;-78
2021/12/27 01:18:08;;;;;;;13.52;2.67;;;22.70;99.90;;;;;;5003735;28;20222;-78
2021/12/27 01:20:39;;;;;;;11.52;2.55;;;22.80;99.90;;;;;;5007917;28;20213;-79
2021/12/27 01:23:10;;;;;;;11.48;2.38;;;22.70;99.90;;;;;;5009890;28;20233;-79
2021/12/27 01:25:41;;;;;;;13.98;2.47;;;22.70;99.90;;;;;;5010932;28;20217;-79
2021/12/27 01:28:12;;;;;;;12.43;2.55;;;22.90;99.90;;;;;;5005453;28;20766;-80
2021/12/27 01:30:47;;;;;;;8.10;2.35;;;22.90;99.90;;;;;;5008099;28;20770;-80
2021/12/27 01:33:23;;;;;;;12.13;2.10;;;22.90;99.90;;;;;;5009010;28;20216;-81
2021/12/27 01:35:54;;;;;;;13.18;2.25;;;23.00;99.90;;;;;;5010176;28;20312;-80
2021/12/27 01:38:25;;;;;;;8.13;2.17;;;23.10;99.90;;;;;;5008623;28;20782;-80
2021/12/27 01:40:57;;;;;;;9.45;1.98;;;23.20;99.90;;;;;;5008312;28;20665;-80
2021/12/27 01:43:29;;;;;;;9.55;2.08;;;23.30;99.90;;;;;;5016069;28;20244;-80
2021/12/27 01:46:02;;;;;;;11.75;2.17;;;23.40;99.90;;;;;;5011379;28;20225;-81
2021/12/27 01:48:37;;;;;;;9.02;2.38;;;23.60;99.90;;;;;;5008275;28;20256;-80
2021/12/27 01:51:09;;;;;;;11.32;2.47;;;23.70;99.90;;;;;;5008797;28;20233;-80
2021/12/27 01:53:42;;;;;;;7.43;1.90;;;23.50;99.90;;;;;;5007831;28;21968;-79
2021/12/27 01:56:15;;;;;;;9.02;2.05;;;23.30;99.90;;;;;;5008267;28;20218;-80
2021/12/27 01:58:47;;;;;;;11.48;2.35;;;23.50;99.90;;;;;;5008387;28;20287;-80
2021/12/27 02:01:18;;;;;;;8.55;2.35;;;23.60;99.90;;;;;;5023817;28;20213;-79
2021/12/27 02:03:53;;;;;;;7.75;2.00;;;23.70;99.90;;;;;;5030211;28;20716;-79
2021/12/27 02:06:26;;;;;;;6.53;2.00;;;23.70;99.90;;;;;;5026888;28;20274;-79
2021/12/27 02:08:56;;;;;;;8.30;2.08;;;23.70;99.90;;;;;;5028183;28;20304;-79
2021/12/27 02:11:27;;;;;;;13.57;2.40;;;23.60;99.90;;;;;;5025389;28;20583;-79
2021/12/27 02:13:58;;;;;;;8.65;2.00;;;23.70;99.90;;;;;;5031534;28;20290;-80
2021/12/27 02:16:29;;;;;;;9.25;2.03;;;23.70;99.90;;;;;;5030138;28;20227;-80
2021/12/27 02:19:01;;;;;;;13.13;2.35;;;23.70;99.90;;;;;;5030917;28;20202;-80
2021/12/27 02:21:34;;;;;;;6.20;2.20;;;23.90;99.90;;;;;;5030348;28;20251;-80
2021/12/27 02:24:07;;;;;;;11.57;2.28;;;24.00;99.90;;;;;;5031817;28;20681;-80
2021/12/27 02:26:38;;;;;;;8.13;2.00;;;23.90;99.90;;;;;;5031637;28;20248;-80
2021/12/27 02:29:09;;;;;;;13.13;2.53;;;24.00;99.90;;;;;;5031753;28;20212;-80
2021/12/27 02:31:41;;;;;;;11.80;2.30;;;23.90;99.90;;;;;;5031146;28;20213;-80
2021/12/27 02:34:12;;;;;;;9.38;2.03;;;24.00;99.90;;;;;;5031054;28;20221;-80
2021/12/27 02:36:44;;;;;;;9.77;2.15;;;23.90;99.90;;;;;;5028655;28;20283;-80
2021/12/27 02:39:15;;;;;;;7.85;1.98;;;23.80;99.90;;;;;;5030642;28;20229;-81
2021/12/27 02:41:46;;;;;;;6.32;1.70;;;23.50;99.90;;;;;;5027984;28;20212;-80
2021/12/27 02:44:16;;;;;;;7.75;1.77;;;23.40;99.90;;;;;;5035194;28;20266;-80
2021/12/27 02:46:47;;;;;;;8.60;1.70;;;23.40;99.90;;;;;;5036926;28;20229;-80
2021/12/27 02:49:18;;;;;;;7.88;1.90;;;23.50;99.90;;;;;;5018965;28;20641;-80
2021/12/27 02:51:52;;;;;;;8.98;1.60;;;23.60;99.90;;;;;;5024522;28;20661;-80
2021/12/27 02:54:23;;;;;;;11.25;2.28;;;23.60;99.90;;;;;;5028769;28;20608;-80
2021/12/27 02:56:53;;;;;;;9.13;2.00;;;23.70;99.90;;;;;;5030870;28;20483;-80
2021/12/27 02:59:24;;;;;;;9.00;1.70;;;23.60;99.90;;;;;;5031668;28;20197;-81
2021/12/27 03:01:54;;;;;;;10.98;1.90;;;23.60;99.90;;;;;;5041342;28;20246;-80
2021/12/27 03:04:25;;;;;;;6.88;1.75;;;23.50;99.90;;;;;;5041601;28;20225;-80
2021/12/27 03:06:58;;;;;;;8.68;1.73;;;23.50;99.90;;;;;;5029784;28;20206;-80
2021/12/27 03:09:28;;;;;;;7.60;1.48;;;23.30;99.90;;;;;;5028792;28;20197;-80
2021/12/27 03:11:59;;;;;;;10.60;1.70;;;23.30;99.90;;;;;;5029123;28;20209;-80
2021/12/27 03:14:29;;;;;;;6.07;1.30;;;23.20;99.90;;;;;;5030969;28;20213;-80
2021/12/27 03:17:00;;;;;;;6.82;1.35;;;23.10;99.90;;;;;;5028596;28;20247;-80
2021/12/27 03:19:31;;;;;;;4.47;1.20;;;23.10;99.90;;;;;;5035138;28;20635;-80
2021/12/27 03:22:03;;;;;;;7.45;1.55;;;23.10;99.90;;;;;;5029959;28;20225;-80
2021/12/27 03:24:34;;;;;;;6.45;1.40;;;23.00;99.90;;;;;;5025571;28;20251;-81
2021/12/27 03:27:04;;;;;;;7.00;1.38;;;23.00;99.90;;;;;;5026066;28;20201;-81
2021/12/27 03:29:36;;;;;;;4.50;1.40;;;22.90;99.90;;;;;;5030282;28;20542;-80
2021/12/27 03:32:07;;;;;;;8.63;1.48;;;22.90;99.90;;;;;;5030316;28;20204;-83
2021/12/27 03:34:42;;;;;;;7.20;1.77;;;22.90;99.90;;;;;;5029829;28;20217;-81
2021/12/27 03:37:15;;;;;;;7.45;1.48;;;22.80;99.90;;;;;;5031097;28;20409;-81
2021/12/27 03:39:45;;;;;;;4.10;1.10;;;22.80;99.90;;;;;;5030284;28;20209;-81
2021/12/27 03:42:17;;;;;;;6.10;1.13;;;22.80;99.90;;;;;;5027009;28;20222;-81
2021/12/27 03:44:47;;;;;;;3.05;0.90;;;22.70;99.90;;;;;;5026960;28;20217;-81
2021/12/27 03:47:18;;;;;;;8.30;1.48;;;22.70;99.90;;;;;;5030865;28;20225;-81
2021/12/27 03:49:49;;;;;;;5.32;1.45;;;22.60;99.90;;;;;;5030421;28;20194;-80
2021/12/27 03:52:21;;;;;;;5.78;1.25;;;22.60;99.90;;;;;;5026205;28;20214;-81
2021/12/27 03:54:52;;;;;;;7.47;1.20;;;22.60;99.90;;;;;;5024466;28;20270;-80
2021/12/27 03:57:23;;;;;;;4.30;1.05;;;22.70;99.90;;;;;;5024877;28;21060;-80
2021/12/27 04:00:15;;;;;;;4.30;1.20;;;22.80;99.90;;;;;;5024828;28;20267;-79
2021/12/27 04:02:46;;;;;;;4.63;1.27;;;22.80;99.90;;;;;;5024796;28;20231;-79
2021/12/27 04:05:17;;;;;;;4.38;1.10;;;23.00;99.90;;;;;;5025645;28;20703;-79
2021/12/27 04:07:59;;;;;;;4.38;1.13;;;23.10;99.90;;;;;;5025208;28;20243;-80
2021/12/27 04:10:30;;;;;;;6.10;1.23;;;23.30;99.90;;;;;;5026125;28;20224;-80
2021/12/27 04:13:01;;;;;;;3.95;1.00;;;23.30;99.90;;;;;;5026392;28;20251;-80
2021/12/27 04:15:32;;;;;;;7.25;0.93;;;23.40;99.90;;;;;;5023900;28;20256;-80
2021/12/27 04:18:02;;;;;;;5.15;0.90;;;23.40;99.90;;;;;;5023858;28;20648;-79
2021/12/27 04:20:33;;;;;;;2.85;0.90;;;23.70;99.90;;;;;;5024370;28;20225;-80
2021/12/27 04:23:06;;;;;;;2.03;0.60;;;23.80;99.90;;;;;;5024001;28;20203;-80
2021/12/27 04:25:37;;;;;;;3.17;0.80;;;23.90;99.90;;;;;;5022741;28;20255;-80
2021/12/27 04:28:08;;;;;;;4.32;0.80;;;23.90;99.90;;;;;;5024536;28;20254;-80
2021/12/27 04:30:39;;;;;;;2.75;0.80;;;23.90;99.90;;;;;;5024116;28;20201;-80
2021/12/27 04:33:09;;;;;;;3.03;0.95;;;23.90;99.90;;;;;;5023401;28;20201;-79
2021/12/27 04:35:40;;;;;;;4.18;0.80;;;24.00;99.90;;;;;;5023514;28;20604;-80
2021/12/27 04:38:13;;;;;;;4.13;1.02;;;24.10;99.90;;;;;;5023617;28;20680;-80
2021/12/27 04:40:47;;;;;;;3.58;0.98;;;24.10;99.90;;;;;;5023848;28;20679;-80
2021/12/27 04:43:19;;;;;;;5.38;0.90;;;24.10;99.90;;;;;;5024089;28;20595;-80
2021/12/27 04:45:50;;;;;;;3.10;0.60;;;24.10;99.90;;;;;;5024255;28;20291;-80
2021/12/27 04:48:23;;;;;;;2.90;0.70;;;24.30;99.90;;;;;;5023164;28;20704;-80
2021/12/27 04:50:54;;;;;;;5.85;0.90;;;24.40;99.90;;;;;;5026259;28;20263;-80
2021/12/27 04:53:27;;;;;;;3.53;0.80;;;24.60;99.90;;;;;;5023676;28;20200;-80
2021/12/27 04:55:58;;;;;;;3.15;0.77;;;24.60;99.90;;;;;;5026881;28;20347;-80
2021/12/27 04:58:28;;;;;;;3.97;0.98;;;24.60;99.90;;;;;;5026833;28;20259;-80
2021/12/27 05:00:59;;;;;;;5.72;0.80;;;24.60;99.90;;;;;;5027720;28;20190;-80
2021/12/27 05:03:29;;;;;;;5.85;1.00;;;24.70;99.90;;;;;;5027135;28;20248;-80
2021/12/27 05:06:00;;;;;;;2.15;0.70;;;24.70;99.90;;;;;;5026805;28;20266;-79
2021/12/27 05:08:33;;;;;;;3.75;1.02;;;24.30;99.90;;;;;;5028182;28;20189;-79
2021/12/27 05:11:04;;;;;;;4.43;1.15;;;24.30;99.90;;;;;;5027556;28;20220;-80
2021/12/27 05:13:34;;;;;;;3.92;1.00;;;24.10;99.90;;;;;;5027581;28;20213;-80
2021/12/27 05:16:06;;;;;;;8.02;1.50;;;23.90;99.90;;;;;;5026769;28;20579;-80
2021/12/27 05:18:37;;;;;;;4.82;1.40;;;23.90;99.90;;;;;;5027742;28;20244;-80
2021/12/27 05:21:07;;;;;;;5.00;1.20;;;23.60;99.90;;;;;;5027514;28;20235;-80
2021/12/27 05:23:40;;;;;;;6.07;1.10;;;23.10;99.90;;;;;;5027608;28;20225;-79
2021/12/27 05:26:11;;;;;;;4.00;1.10;;;22.90;99.90;;;;;;5027202;28;20193;-79
2021/12/27 05:28:42;;;;;;;3.17;0.98;;;22.70;99.90;;;;;;5026735;28;20201;-78
2021/12/27 05:31:13;;;;;;;3.20;1.00;;;22.50;99.90;;;;;;5027771;28;20197;-78
2021/12/27 05:33:44;;;;;;;3.13;1.20;;;22.40;99.90;;;;;;5027112;28;20259;-81
2021/12/27 05:36:15;;;;;;;4.65;0.98;;;22.30;99.90;;;;;;5025611;28;20208;-79
2021/12/27 05:38:48;;;;;;;5.05;1.10;;;22.10;99.90;;;;;;5025629;28;20220;-79
2021/12/27 05:41:18;;;;;;;5.13;1.27;;;21.80;99.90;;;;;;5027089;28;20201;-79
2021/12/27 05:43:49;;;;;;;7.10;1.38;;;21.60;99.90;;;;;;5027554;28;20288;-79
2021/12/27 05:46:20;;;;;;;6.32;1.23;;;21.50;99.90;;;;;;5026644;28;20201;-79
2021/12/27 05:48:50;;;;;;;4.85;1.30;;;21.40;99.90;;;;;;5027000;28;20193;-79
2021/12/27 05:51:21;;;;;;;8.88;1.45;;;21.40;99.90;;;;;;5029082;28;20205;-79
2021/12/27 05:53:53;;;;;;;7.55;1.70;;;21.40;99.90;;;;;;5027517;28;20260;-79
2021/12/27 05:56:24;;;;;;;9.25;1.80;;;21.40;99.90;;;;;;5026734;28;20250;-79
2021/12/27 05:58:55;;;;;;;8.05;1.50;;;21.40;99.90;;;;;;5027203;28;20209;-79
2021/12/27 06:01:26;;;;;;;8.75;1.90;;;21.40;99.90;;;;;;5027404;28;20205;-79
2021/12/27 06:03:58;;;;;;;7.18;1.73;;;21.30;99.90;;;;;;5026974;28;20568;-80
2021/12/27 06:06:29;;;;;;;8.73;1.90;;;21.40;99.90;;;;;;5025638;28;20194;-79
2021/12/27 06:09:02;;;;;;;7.35;1.50;;;21.20;99.90;;;;;;5027325;28;20205;-80
2021/12/27 06:11:33;;;;;;;7.30;1.38;;;21.20;99.90;;;;;;5026635;28;20190;-79
2021/12/27 06:14:03;;;;;;;4.45;1.30;;;21.10;99.90;;;;;;5025516;28;20194;-80
2021/12/27 06:16:34;;;;;;;5.57;1.60;;;21.00;99.90;;;;;;5027315;28;20295;-80
2021/12/27 06:19:04;;;;;;;10.38;1.67;;;20.90;99.90;;;;;;5028035;28;20194;-80
2021/12/27 06:21:36;;;;;;;8.85;1.92;;;20.90;99.90;;;;;;5026483;28;20221;-80
2021/12/27 06:24:09;;;;;;;10.00;2.45;;;20.90;99.90;;;;;;5027998;28;20224;-80
2021/12/27 06:26:40;;;;;;;5.32;1.50;;;20.90;99.90;;;;;;5031994;28;20664;-80
2021/12/27 06:29:11;;;;;;;9.25;1.52;;;20.90;99.90;;;;;;5026054;28;20229;-80
2021/12/27 06:31:43;;;;;;;8.13;1.73;;;20.80;99.90;;;;;;5022120;28;20201;-81
2021/12/27 06:34:14;;;;;;;6.05;1.67;;;20.70;99.90;;;;;;5013138;28;20202;-81
2021/12/27 06:36:44;;;;;;;9.25;1.63;;;20.70;99.90;;;;;;5032301;28;20205;-81
2021/12/27 06:39:17;;;;;;;6.93;1.80;;;20.60;99.90;;;;;;5033312;28;20201;-80
2021/12/27 06:41:47;;;;;;;9.43;1.95;;;20.60;99.90;;;;;;5033119;28;20205;-81
2021/12/27 06:44:18;;;;;;;8.45;1.70;;;20.60;99.90;;;;;;5012597;28;20233;-82
2021/12/27 06:46:49;;;;;;;6.72;1.60;;;20.50;99.90;;;;;;5013455;28;20234;-81
2021/12/27 06:49:19;;;;;;;9.88;2.03;;;20.40;99.90;;;;;;5013278;28;20206;-82
2021/12/27 06:51:50;;;;;;;7.38;1.55;;;20.40;99.90;;;;;;5016493;28;20653;-81
2021/12/27 06:54:23;;;;;;;6.00;1.67;;;20.40;99.90;;;;;;5032425;28;20212;-82
2021/12/27 06:56:54;;;;;;;10.27;2.03;;;20.30;99.90;;;;;;5020388;28;20197;-82
2021/12/27 06:59:25;;;;;;;8.48;1.92;;;20.40;99.90;;;;;;5033369;28;20216;-81
2021/12/27 07:01:55;;;;;;;9.73;1.77;;;20.30;99.90;;;;;;5030767;28;20193;-80
2021/12/27 07:04:26;;;;;;;8.27;1.52;;;20.30;99.90;;;;;;5032498;28;20217;-80
2021/12/27 07:06:57;;;;;;;9.27;2.15;;;20.40;99.90;;;;;;5026461;28;20209;-80
2021/12/27 07:09:29;;;;;;;11.65;2.20;;;20.30;99.90;;;;;;5021089;28;20217;-81
2021/12/27 07:12:01;;;;;;;8.45;1.80;;;20.20;99.90;;;;;;5028893;28;20262;-80
2021/12/27 07:14:32;;;;;;;12.48;2.22;;;20.20;99.90;;;;;;5026570;28;20217;-79
2021/12/27 07:17:02;;;;;;;8.02;1.73;;;20.20;99.90;;;;;;5026237;28;20201;-79
2021/12/27 07:19:33;;;;;;;8.27;2.03;;;20.20;99.90;;;;;;5028263;28;20542;-79
2021/12/27 07:22:05;;;;;;;7.97;2.08;;;20.20;99.90;;;;;;5028807;28;20236;-79
2021/12/27 07:24:38;;;;;;;10.82;1.98;;;20.30;99.90;;;;;;5030613;28;20769;-80
2021/12/27 07:27:08;;;;;;;8.35;2.22;;;20.30;99.90;;;;;;5030139;28;20201;-80
2021/12/27 07:29:39;;;;;;;5.72;1.63;;;20.40;99.90;;;;;;5031372;28;20251;-81
2021/12/27 07:32:10;;;;;;;7.70;1.90;;;20.40;99.90;;;;;;5029888;28;20221;-80
2021/12/27 07:34:41;;;;;;;8.02;2.05;;;20.30;99.90;;;;;;5038806;28;20343;-80
2021/12/27 07:37:12;;;;;;;6.13;2.30;;;20.30;99.90;;;;;;5028495;28;20232;-79
2021/12/27 07:39:44;;;;;;;10.50;2.10;;;20.30;99.90;;;;;;5030044;28;20202;-80
2021/12/27 07:42:15;;;;;;;9.10;1.73;;;20.30;99.90;;;;;;5031827;28;20208;-79
2021/12/27 07:44:46;;;;;;;6.63;1.92;;;20.30;99.90;;;;;;5030847;28;20221;-80
2021/12/27 07:47:16;;;;;;;8.07;1.75;;;20.30;99.90;;;;;;5031360;28;20287;-80
2021/12/27 07:49:47;;;;;;;8.13;1.85;;;20.30;99.90;;;;;;5030188;28;20197;-80
2021/12/27 07:52:18;;;;;;;9.25;1.92;;;20.30;99.90;;;;;;5025083;28;20225;-79
2021/12/27 07:54:51;;;;;;;9.00;1.92;;;20.30;99.90;;;;;;5028573;28;20193;-79
2021/12/27 07:57:21;;;;;;;8.10;1.75;;;20.30;99.90;;;;;;5027909;28;20221;-80
2021/12/27 07:59:52;;;;;;;8.85;1.92;;;20.20;99.90;;;;;;5028866;28;20570;-80
2021/12/27 08:02:23;;;;;;;8.98;1.63;;;20.20;99.90;;;;;;5031388;28;20568;-79
2021/12/27 08:04:53;;;;;;;7.15;1.80;;;20.20;99.90;;;;;;5030056;28;20286;-81
2021/12/27 08:07:24;;;;;;;4.63;1.30;;;20.20;99.90;;;;;;5031565;28;20220;-80
2021/12/27 08:09:57;;;;;;;6.25;1.33;;;20.10;99.90;;;;;;5008896;28;20218;-80
2021/12/27 08:12:27;;;;;;;6.65;1.58;;;20.20;99.90;;;;;;5006985;28;20388;-82
2021/12/27 08:14:58;;;;;;;6.60;1.95;;;20.20;99.90;;;;;;5021102;28;20608;-80
2021/12/27 08:17:30;;;;;;;9.15;1.90;;;20.30;99.90;;;;;;5022606;28;20221;-81
2021/12/27 08:20:00;;;;;;;5.60;1.48;;;20.30;99.90;;;;;;5028637;28;20263;-80
2021/12/27 08:22:31;;;;;;;7.15;1.70;;;20.20;99.90;;;;;;5028755;28;20213;-81
2021/12/27 08:25:06;;;;;;;8.63;1.70;;;20.20;99.90;;;;;;5015222;28;20288;-80
2021/12/27 08:27:40;;;;;;;6.90;1.80;;;20.20;99.90;;;;;;5008919;28;20197;-79
2021/12/27 08:30:13;;;;;;;5.93;1.30;;;20.10;99.90;;;;;;5007015;28;20228;-80
2021/12/27 08:32:46;;;;;;;6.90;1.50;;;20.10;99.90;;;;;;5005799;28;20762;-79
2021/12/27 08:35:18;;;;;;;8.77;2.00;;;20.10;99.90;;;;;;5017889;28;20405;-80
2021/12/27 08:37:50;;;;;;;9.23;1.67;;;20.10;99.90;;;;;;5032074;28;20253;-80
2021/12/27 08:40:23;;;;;;;7.32;1.95;;;20.20;99.90;;;;;;5019445;28;20197;-78
2021/12/27 08:42:54;;;;;;;8.27;1.50;;;20.10;99.90;;;;;;5017561;28;20224;-79
2021/12/27 08:45:25;;;;;;;6.93;1.70;;;20.10;99.90;;;;;;5018451;28;20233;-80
2021/12/27 08:47:57;;;;;;;9.85;2.00;;;20.10;99.90;;;;;;5016300;28;20237;-80
2021/12/27 08:50:28;;;;;;;9.40;2.03;;;20.10;99.90;;;;;;5023181;28;20197;-80
2021/12/27 08:52:59;;;;;;;6.25;1.60;;;20.10;99.90;;;;;;5018640;28;20224;-81
2021/12/27 08:55:33;;;;;;;6.03;1.60;;;20.00;99.90;;;;;;5015173;28;20217;-79
2021/12/27 08:58:06;;;;;;;9.90;2.28;;;20.00;99.90;;;;;;5015763;28;20278;-80
2021/12/27 09:00:37;;;;;;;5.57;1.70;;;20.00;99.90;;;;;;5017554;28;20232;-82
2021/12/27 09:03:11;;;;;;;7.80;1.73;;;19.90;99.90;;;;;;5016768;28;20201;-81
2021/12/27 09:05:42;;;;;;;6.38;1.80;;;20.00;99.90;;;;;;5020329;28;20217;-81
2021/12/27 09:08:14;;;;;;;10.07;2.00;;;19.90;99.90;;;;;;5022807;28;20218;-81
2021/12/27 09:10:49;;;;;;;8.23;1.88;;;19.90;99.90;;;;;;5030000;28;20264;-81
2021/12/27 09:13:20;;;;;;;6.50;1.50;;;19.90;99.90;;;;;;5031020;28;20216;-81
2021/12/27 09:15:50;;;;;;;7.22;1.70;;;19.80;99.90;;;;;;5034402;28;20213;-81
2021/12/27 09:18:24;;;;;;;7.43;1.65;;;19.80;99.90;;;;;;5037415;28;20221;-81
2021/12/27 09:20:56;;;;;;;9.27;2.08;;;19.90;99.90;;;;;;5038537;28;20727;-80
2021/12/27 09:23:30;;;;;;;12.52;2.40;;;19.90;99.90;;;;;;5035547;28;20244;-81
2021/12/27 09:26:12;;;;;;;9.80;1.88;;;19.80;99.90;;;;;;5029702;28;20639;-82
2021/12/27 09:28:53;;;;;;;6.00;1.70;;;19.80;99.90;;;;;;5026589;28;20209;-81
2021/12/27 09:31:25;;;;;;;6.05;1.63;;;19.70;99.90;;;;;;5029966;28;20217;-82
2021/12/27 09:33:56;;;;;;;8.05;1.80;;;19.70;99.90;;;;;;5027369;28;20248;-83
2021/12/27 09:36:31;;;;;;;6.68;1.85;;;19.70;99.90;;;;;;5031015;28;20563;-82
2021/12/27 09:39:07;;;;;;;7.93;1.80;;;19.70;99.90;;;;;;5034290;28;20224;-81
2021/12/27 09:41:42;;;;;;;7.32;1.77;;;19.60;99.90;;;;;;5033178;28;20679;-81
2021/12/27 09:44:22;;;;;;;7.90;1.63;;;19.60;99.90;;;;;;5033585;28;20640;-82
2021/12/27 09:47:04;;;;;;;7.38;1.70;;;19.60;99.90;;;;;;5035549;28;20244;-82
2021/12/27 09:49:34;;;;;;;8.85;1.60;;;19.50;99.90;;;;;;5031275;28;20213;-82
2021/12/27 09:52:11;;;;;;;9.93;1.77;;;19.60;99.90;;;;;;5037136;28;21872;-81
2021/12/27 09:54:43;;;;;;;7.05;1.63;;;19.50;99.90;;;;;;5030026;28;20248;-81
2021/12/27 09:57:18;;;;;;;5.97;1.10;;;19.50;99.90;;;;;;5030052;28;20248;-82
2021/12/27 09:59:48;;;;;;;6.68;1.42;;;19.50;99.90;;;;;;5026708;28;20217;-81
2021/12/27 10:02:30;;;;;;;5.95;1.38;;;19.50;99.90;;;;;;5025268;28;20213;-79
2021/12/27 10:05:00;;;;;;;8.80;1.70;;;19.40;99.90;;;;;;5024712;28;20239;-81
2021/12/27 10:07:33;;;;;;;8.13;1.65;;;19.40;99.90;;;;;;5026346;28;20299;-81
2021/12/27 10:10:04;;;;;;;5.90;1.23;;;19.40;99.90;;;;;;5022905;28;20221;-81
2021/12/27 10:12:38;;;;;;;7.43;1.42;;;19.40;99.90;;;;;;5028767;28;20242;-80
2021/12/27 10:15:21;;;;;;;5.15;1.50;;;19.40;99.90;;;;;;5035411;28;20217;-92
2021/12/27 10:18:08;;;;;;;9.32;2.22;;;19.40;99.90;;;;;;5042298;28;20205;-87
2021/12/27 10:20:40;;;;;;;8.27;1.75;;;19.50;99.90;;;;;;5046587;28;20348;-85
2021/12/27 10:23:14;;;;;;;5.75;1.33;;;19.50;99.90;;;;;;5033276;28;20697;-87
2021/12/27 10:25:45;;;;;;;6.15;1.45;;;19.50;99.90;;;;;;5035503;28;20232;-94
2021/12/27 10:28:36;;;;;;;7.55;1.80;;;19.40;99.90;;;;;;5023829;28;20216;-96
2021/12/27 10:31:07;;;;;;;10.60;1.40;;;19.40;99.90;;;;;;5036802;28;20213;-92
2021/12/27 10:33:40;;;;;;;6.55;1.42;;;19.40;99.90;;;;;;5021119;28;20225;-86
2021/12/27 10:36:12;;;;;;;6.20;1.73;;;19.40;99.90;;;;;;5038198;28;20224;-93
2021/12/27 10:38:44;;;;;;;6.72;1.92;;;19.40;99.90;;;;;;5036413;28;20292;-95
2021/12/27 10:41:16;;;;;;;6.55;1.90;;;19.40;99.90;;;;;;5037274;28;20278;-95
2021/12/27 10:43:54;;;;;;;6.45;1.67;;;19.40;99.90;;;;;;5033985;28;20223;-93
2021/12/27 10:46:25;;;;;;;6.45;1.80;;;19.50;99.90;;;;;;5040638;28;20241;-93
2021/12/27 10:48:59;;;;;;;8.10;2.03;;;19.50;99.90;;;;;;5036567;28;20224;-91
2021/12/27 10:51:32;;;;;;;3.95;1.40;;;19.60;99.90;;;;;;5018325;28;20267;-94
2021/12/27 10:54:11;;;;;;;8.38;1.80;;;19.60;99.90;;;;;;5038882;28;20202;-94
2021/12/27 10:57:02;;;;;;;8.98;1.95;;;19.50;99.90;;;;;;5039414;28;20668;-93
2021/12/27 10:59:37;;;;;;;8.30;2.03;;;19.40;99.90;;;;;;5015403;28;20345;-86
2021/12/27 11:02:17;;;;;;;13.70;2.78;;;19.40;99.90;;;;;;5031920;28;20221;-85
2021/12/27 11:04:49;;;;;;;10.65;2.40;;;19.40;99.90;;;;;;5030430;28;20570;-87
2021/12/27 11:07:21;;;;;;;7.95;1.90;;;19.30;99.90;;;;;;5031028;28;20221;-86
2021/12/27 11:09:54;;;;;;;11.60;2.35;;;19.30;99.90;;;;;;5033479;28;20232;-86
2021/12/27 11:12:26;;;;;;;10.15;2.33;;;19.30;99.90;;;;;;5032439;28;20218;-94
2021/12/27 11:15:18;;;;;;;10.65;1.95;;;19.20;99.90;;;;;;5017457;28;20205;-94
2021/12/27 11:17:52;;;;;;;10.50;1.88;;;19.20;99.90;;;;;;5035527;28;20274;-93
2021/12/27 11:20:26;;;;;;;8.77;1.58;;;19.20;99.90;;;;;;5018231;28;20239;-92
2021/12/27 11:23:00;;;;;;;5.57;1.50;;;19.20;99.90;;;;;;5034181;28;20192;-95
2021/12/27 11:25:36;;;;;;;10.95;1.90;;;19.20;99.90;;;;;;5037700;28;21052;-93
2021/12/27 11:28:12;;;;;;;7.93;2.30;;;19.20;99.90;;;;;;5033615;28;20650;-94
2021/12/27 11:30:46;;;;;;;10.23;2.13;;;19.20;99.90;;;;;;5032176;28;20189;-90
2021/12/27 11:33:20;;;;;;;9.43;1.92;;;19.20;99.90;;;;;;5033265;28;20205;-92
2021/12/27 11:36:08;;;;;;;11.20;2.33;;;19.10;99.90;;;;;;5018091;28;20228;-94
2021/12/27 11:38:41;;;;;;;8.57;2.10;;;19.10;99.90;;;;;;5030632;28;20275;-86
2021/12/27 11:41:31;;;;;;;6.47;1.65;;;19.10;99.90;;;;;;5035322;28;20225;-87
2021/12/27 11:44:05;;;;;;;7.45;1.88;;;19.10;99.90;;;;;;5038671;28;20656;-92
2021/12/27 11:50:03;;;;;;;8.98;1.70;;;19.20;99.90;;;;;;5043624;28;20280;-93
2021/12/27 11:52:35;;;;;;;6.68;1.55;;;19.20;99.90;;;;;;5044038;28;20195;-91
2021/12/27 11:55:10;;;;;;;6.55;1.70;;;19.20;99.90;;;;;;5024720;28;20299;-91
2021/12/27 11:57:58;;;;;;;5.63;1.63;;;19.20;99.90;;;;;;5037482;28;20236;-91
2021/12/27 12:00:43;;;;;;;7.65;1.70;;;19.20;99.90;;;;;;5036616;28;20251;-91
2021/12/27 12:03:42;;;;;;;8.80;1.50;;;19.20;99.90;;;;;;5036114;28;20213;-94
2021/12/27 12:06:40;;;;;;;8.38;1.50;;;19.20;99.90;;;;;;5032474;28;20229;-93
2021/12/27 12:09:17;;;;;;;10.57;1.48;;;19.20;99.90;;;;;;5037891;28;20215;-95
2021/12/27 12:12:01;;;;;;;6.80;1.52;;;19.10;99.90;;;;;;5030946;28;20638;-87
2021/12/27 12:14:34;;;;;;;8.35;1.40;;;19.20;99.90;;;;;;5015823;28;20193;-91
2021/12/27 12:17:08;;;;;;;7.43;1.52;;;19.20;99.90;;;;;;5033942;28;20641;-93
2021/12/27 12:19:58;;;;;;;5.20;1.40;;;19.20;99.90;;;;;;5032975;28;20333;-93
2021/12/27 12:22:40;;;;;;;9.10;1.48;;;19.20;99.90;;;;;;5033406;28;20209;-94
2021/12/27 12:25:21;;;;;;;7.95;1.38;;;19.20;99.90;;;;;;5015759;28;20205;-94
2021/12/27 12:27:57;;;;;;;7.40;1.40;;;19.20;99.90;;;;;;5033043;28;20225;-94
2021/12/27 12:30:32;;;;;;;6.57;1.25;;;19.20;99.90;;;;;;5032874;28;20204;-92
2021/12/27 12:33:08;;;;;;;3.88;1.20;;;19.20;99.90;;;;;;5032039;28;20263;-93
2021/12/27 12:35:46;;;;;;;8.60;1.45;;;19.20;99.90;;;;;;5032705;28;20676;-89
2021/12/27 12:38:23;;;;;;;9.23;1.50;;;19.10;99.90;;;;;;5035060;28;20660;-94
2021/12/27 12:41:07;;;;;;;7.68;1.15;;;19.10;99.90;;;;;;5037605;28;20248;-94
2021/12/27 12:43:45;;;;;;;7.22;1.30;;;19.10;99.90;;;;;;5034716;28;20628;-94
2021/12/27 12:46:25;;;;;;;6.47;1.10;;;19.10;99.90;;;;;;5033674;28;20216;-94
2021/12/27 12:49:06;;;;;;;8.55;1.55;;;19.00;99.90;;;;;;5037502;28;20201;-91
2021/12/27 12:51:43;;;;;;;5.20;1.02;;;19.00;99.90;;;;;;5037187;28;20220;-94
2021/12/27 12:54:34;;;;;;;7.43;1.00;;;19.00;99.90;;;;;;5045287;28;20621;-94
2021/12/27 12:57:09;;;;;;;5.65;1.25;;;19.00;99.90;;;;;;5035471;28;20211;-94
2021/12/27 12:59:42;;;;;;;8.50;1.55;;;19.00;99.90;;;;;;5036196;28;20188;-94
2021/12/27 13:02:16;;;;;;;8.48;1.17;;;19.00;99.90;;;;;;5034325;28;20596;-92
2021/12/27 13:04:56;;;;;;;8.30;1.52;;;19.00;99.90;;;;;;5041293;28;20197;-93
2021/12/27 13:07:44;;;;;;;8.50;1.50;;;19.00;99.90;;;;;;5032042;28;20235;-95
2021/12/27 13:10:21;;;;;;;6.88;1.30;;;19.00;99.90;;;;;;5032919;28;20201;-91
2021/12/27 13:12:53;;;;;;;7.85;1.10;;;19.10;99.90;;;;;;5034480;28;20280;-95
2021/12/27 13:15:27;;;;;;;6.50;1.52;;;19.10;99.90;;;;;;5056589;28;20197;-95
2021/12/27 13:18:08;;;;;;;6.57;1.45;;;19.10;99.90;;;;;;5058618;28;20203;-95
2021/12/27 13:20:40;;;;;;;5.70;0.95;;;19.10;99.90;;;;;;5056662;28;20585;-94